createdAt,value
2018-08-23T00:01:04.270Z,99696.72
2018-08-23T00:03:32.008Z,99694.30
2018-08-23T00:06:00.122Z,99690.98
2018-08-23T00:08:27.822Z,99690.98
2018-08-23T00:10:55.490Z,99690.44
2018-08-23T00:13:23.377Z,99687.67
2018-08-23T00:15:51.157Z,99686.55
2018-08-23T00:18:18.841Z,99684.36
2018-08-23T00:20:46.513Z,99679.31
2018-08-23T00:23:14.193Z,99682.80
2018-08-23T00:25:41.875Z,99685.25
2018-08-23T00:28:10.490Z,99678.15
2018-08-23T00:30:38.181Z,99683.66
2018-08-23T00:33:06.334Z,99676.81
2018-08-23T00:35:35.818Z,99674.05
2018-08-23T00:38:04.330Z,99675.66
2018-08-23T00:40:39.433Z,99675.06
2018-08-23T00:43:08.119Z,99679.43
2018-08-23T00:45:35.846Z,99683.00
2018-08-23T00:48:03.569Z,99683.61
2018-08-23T00:51:04.438Z,99680.42
2018-08-23T00:53:36.345Z,99678.61
2018-08-23T00:56:14.070Z,99676.99
2018-08-23T00:58:45.594Z,99682.48
2018-08-23T01:01:13.863Z,99679.69
2018-08-23T01:03:41.848Z,99685.91
2018-08-23T01:06:09.530Z,99691.13
2018-08-23T01:08:37.237Z,99691.08
2018-08-23T01:11:06.145Z,99696.91
2018-08-23T01:13:34.053Z,99694.73
2018-08-23T01:16:01.741Z,99693.66
2018-08-23T01:18:29.434Z,99694.22
2018-08-23T01:20:57.113Z,99690.42
2018-08-23T01:23:24.814Z,99685.67
2018-08-23T01:25:52.783Z,99688.98
2018-08-23T01:28:20.526Z,99693.12
2018-08-23T01:30:48.781Z,99694.70
2018-08-23T01:33:20.535Z,99688.95
2018-08-23T01:35:49.425Z,99690.83
2018-08-23T01:38:17.501Z,99690.14
2018-08-23T01:40:45.382Z,99689.52
2018-08-23T01:43:13.161Z,99695.83
2018-08-23T01:45:40.848Z,99692.02
2018-08-23T01:48:09.569Z,99692.02
2018-08-23T01:50:37.265Z,99687.48
2018-08-23T01:53:05.054Z,99684.10
2018-08-23T01:55:32.743Z,99680.00
2018-08-23T01:58:00.486Z,99679.66
2018-08-23T02:00:30.246Z,99685.27
2018-08-23T02:02:59.546Z,99677.67
2018-08-23T02:05:27.270Z,99684.01
2018-08-23T02:07:54.966Z,99684.55
2018-08-23T02:10:22.649Z,99678.27
2018-08-23T02:12:51.741Z,99680.02
2018-08-23T02:15:19.696Z,99676.25
2018-08-23T02:17:52.873Z,99677.92
2018-08-23T02:20:21.362Z,99680.95
2018-08-23T02:22:49.065Z,99673.81
2018-08-23T02:25:16.739Z,99680.16
2018-08-23T02:28:06.645Z,99685.37
2018-08-23T02:31:00.896Z,99681.19
2018-08-23T02:33:28.562Z,99677.61
2018-08-23T02:36:18.780Z,99677.77
2018-08-23T02:38:50.132Z,99671.03
2018-08-23T02:41:17.893Z,99675.18
2018-08-23T02:43:46.166Z,99673.27
2018-08-23T02:46:13.881Z,99678.34
2018-08-23T02:48:41.561Z,99672.91
2018-08-23T02:51:09.316Z,99672.17
2018-08-23T02:53:43.899Z,99676.42
2018-08-23T02:56:17.800Z,99680.56
2018-08-23T02:58:51.822Z,99683.34
2018-08-23T03:01:19.484Z,99686.84
2018-08-23T03:03:59.757Z,99693.42
2018-08-23T03:06:32.033Z,99695.77
2018-08-23T03:08:59.705Z,99697.64
2018-08-23T03:11:27.366Z,99693.19
2018-08-23T03:13:55.098Z,99696.73
2018-08-23T03:16:22.757Z,99700.50
2018-08-23T03:18:50.451Z,99706.25
2018-08-23T03:21:18.528Z,99702.71
2018-08-23T03:23:46.214Z,99701.88
2018-08-23T03:26:13.893Z,99709.83
2018-08-23T03:28:41.602Z,99712.56
2018-08-23T03:31:09.331Z,99713.36
2018-08-23T03:33:36.983Z,99716.30
2018-08-23T03:36:04.649Z,99716.23
2018-08-23T03:38:32.311Z,99718.27
2018-08-23T03:40:59.969Z,99721.28
2018-08-23T03:43:27.653Z,99722.38
2018-08-23T03:45:58.096Z,99724.75
2018-08-23T03:48:25.768Z,99726.72
2018-08-23T03:50:53.795Z,99725.88
2018-08-23T03:53:22.070Z,99730.12
2018-08-23T03:56:03.367Z,99726.47
2018-08-23T03:58:31.033Z,99733.47
2018-08-23T04:01:01.035Z,99726.69
2018-08-23T04:03:28.725Z,99718.21
2018-08-23T04:06:06.985Z,99715.38
2018-08-23T04:08:34.633Z,99715.99
2018-08-23T04:11:02.476Z,99714.86
2018-08-23T04:13:30.125Z,99706.28
2018-08-23T04:15:57.811Z,99702.20
2018-08-23T04:18:25.495Z,99702.64
2018-08-23T04:20:54.645Z,99707.66
2018-08-23T04:23:22.362Z,99711.11
2018-08-23T04:25:50.039Z,99704.11
2018-08-23T04:28:17.721Z,99708.96
2018-08-23T04:30:45.433Z,99709.82
2018-08-23T04:33:13.080Z,99708.86
2018-08-23T04:35:40.752Z,99707.19
2018-08-23T04:38:08.412Z,99698.55
2018-08-23T04:40:36.094Z,99698.75
2018-08-23T04:43:03.819Z,99697.86
2018-08-23T04:45:32.893Z,99698.79
2018-08-23T04:48:04.213Z,99702.64
2018-08-23T04:50:31.928Z,99698.03
2018-08-23T04:52:59.653Z,99698.92
2018-08-23T04:55:27.603Z,99698.94
2018-08-23T04:57:56.149Z,99699.30
2018-08-23T05:00:23.828Z,99704.05
2018-08-23T05:02:51.502Z,99706.40
2018-08-23T05:05:19.244Z,99711.97
2018-08-23T05:07:46.955Z,99716.70
2018-08-23T05:10:14.809Z,99714.50
2018-08-23T05:12:42.549Z,99717.97
2018-08-23T05:15:10.235Z,99710.44
2018-08-23T05:17:37.919Z,99713.39
2018-08-23T05:20:05.757Z,99714.44
2018-08-23T05:22:33.468Z,99715.48
2018-08-23T05:25:06.665Z,99716.70
2018-08-23T05:27:44.557Z,99724.02
2018-08-23T05:30:12.236Z,99721.80
2018-08-23T05:32:39.908Z,99731.05
2018-08-23T05:35:07.716Z,99724.28
2018-08-23T05:37:35.950Z,99732.83
2018-08-23T05:40:03.654Z,99735.95
2018-08-23T05:42:46.841Z,99735.20
2018-08-23T05:45:14.502Z,99743.72
2018-08-23T05:47:42.215Z,99736.83
2018-08-23T05:50:09.846Z,99741.63
2018-08-23T05:52:37.490Z,99739.54
2018-08-23T05:55:05.169Z,99743.05
2018-08-23T05:57:32.838Z,99744.62
2018-08-23T06:00:00.529Z,99738.11
2018-08-23T06:02:28.170Z,99735.22
2018-08-23T06:04:55.809Z,99731.16
2018-08-23T06:07:23.545Z,99733.34
2018-08-23T06:09:51.233Z,99734.56
2018-08-23T06:12:18.894Z,99735.40
2018-08-23T06:14:46.542Z,99737.14
2018-08-23T06:17:14.197Z,99741.66
2018-08-23T06:19:41.841Z,99734.78
2018-08-23T06:22:09.483Z,99735.67
2018-08-23T06:24:37.121Z,99741.50
2018-08-23T06:27:04.788Z,99740.47
2018-08-23T06:29:34.277Z,99739.50
2018-08-23T06:32:08.730Z,99744.69
2018-08-23T06:34:39.751Z,99742.44
2018-08-23T06:37:07.396Z,99741.50
2018-08-23T06:39:35.066Z,99741.97
2018-08-23T06:42:03.429Z,99737.34
2018-08-23T06:44:41.403Z,99737.82
2018-08-23T06:47:10.529Z,99735.59
2018-08-23T06:49:38.198Z,99743.54
2018-08-23T06:52:11.694Z,99740.97
2018-08-23T06:54:39.867Z,99745.02
2018-08-23T06:57:07.610Z,99746.44
2018-08-23T06:59:35.598Z,99753.45
2018-08-23T07:02:03.346Z,99750.53
2018-08-23T07:04:31.122Z,99755.80
2018-08-23T07:06:58.806Z,99752.98
2018-08-23T07:09:26.458Z,99760.92
2018-08-23T07:12:29.480Z,99752.45
2018-08-23T07:14:57.146Z,99759.05
2018-08-23T07:17:25.742Z,99749.59
2018-08-23T07:19:53.374Z,99754.30
2018-08-23T07:22:23.166Z,99750.23
2018-08-23T07:24:52.043Z,99749.62
2018-08-23T07:27:20.710Z,99746.44
2018-08-23T07:29:49.770Z,99748.05
2018-08-23T07:32:19.753Z,99744.13
2018-08-23T07:35:14.457Z,99736.19
2018-08-23T07:37:43.535Z,99748.15
2018-08-23T07:40:13.327Z,99747.53
2018-08-23T07:42:42.132Z,99735.91
2018-08-23T07:45:10.318Z,99737.55
2018-08-23T07:47:54.853Z,99741.55
2018-08-23T07:50:22.574Z,99731.56
2018-08-23T07:52:51.621Z,99728.34
2018-08-23T07:55:19.286Z,99735.33
2018-08-23T07:57:47.074Z,99734.00
2018-08-23T08:00:25.482Z,99738.98
2018-08-23T08:02:53.261Z,99737.14
2018-08-23T08:05:21.589Z,99736.63
2018-08-23T08:07:49.271Z,99727.22
2018-08-23T08:10:18.709Z,99730.49
2018-08-23T08:12:50.443Z,99735.23
2018-08-23T08:15:18.539Z,99735.67
2018-08-23T08:17:46.081Z,99735.34
2018-08-23T08:20:13.729Z,99734.25
2018-08-23T08:22:41.386Z,99729.55
2018-08-23T08:25:17.730Z,99735.07
2018-08-23T08:27:45.816Z,99728.86
2018-08-23T08:30:15.666Z,99730.66
2018-08-23T08:32:43.806Z,99731.56
2018-08-23T08:35:17.872Z,99724.33
2018-08-23T08:37:46.928Z,99716.59
2018-08-23T08:40:19.148Z,99724.41
2018-08-23T08:42:46.849Z,99722.39
2018-08-23T08:45:14.534Z,99720.21
2018-08-23T08:47:44.256Z,99721.49
2018-08-23T08:50:12.090Z,99718.90
2018-08-23T08:52:39.770Z,99714.05
2018-08-23T08:55:10.261Z,99712.34
2018-08-23T08:57:40.720Z,99705.67
2018-08-23T09:00:09.001Z,99703.16
2018-08-23T09:02:36.772Z,99700.88
2018-08-23T09:05:04.646Z,99704.84
2018-08-23T09:07:33.393Z,99703.91
2018-08-23T09:10:01.163Z,99696.70
2018-08-23T09:12:30.178Z,99692.81
2018-08-23T09:14:58.006Z,99692.87
2018-08-23T09:17:44.219Z,99685.30
2018-08-23T09:20:16.090Z,99692.05
2018-08-23T09:22:50.417Z,99687.04
2018-08-23T09:25:23.738Z,99678.63
2018-08-23T09:27:51.647Z,99681.82
2018-08-23T09:30:27.227Z,99679.58
2018-08-23T09:32:55.271Z,99672.19
2018-08-23T09:35:28.538Z,99670.27
2018-08-23T09:37:57.573Z,99670.05
2018-08-23T09:40:25.618Z,99670.75
2018-08-23T09:42:53.373Z,99674.63
2018-08-23T09:45:21.021Z,99670.53
2018-08-23T09:47:48.718Z,99666.25
2018-08-23T09:50:17.159Z,99667.38
2018-08-23T09:52:46.817Z,99667.39
2018-08-23T09:55:15.585Z,99662.23
2018-08-23T09:57:43.758Z,99666.05
2018-08-23T10:00:13.253Z,99659.95
2018-08-23T10:02:46.823Z,99659.45
2018-08-23T10:05:20.156Z,99659.05
2018-08-23T10:07:53.265Z,99655.08
2018-08-23T10:10:26.433Z,99652.02
2018-08-23T10:12:59.574Z,99655.52
2018-08-23T10:15:32.713Z,99643.92
2018-08-23T10:18:05.881Z,99642.45
2018-08-23T10:20:46.158Z,99648.36
2018-08-23T10:23:19.333Z,99644.80
2018-08-23T10:25:48.369Z,99638.21
2018-08-23T10:28:17.283Z,99632.69
2018-08-23T10:30:45.303Z,99631.53
2018-08-23T10:33:13.040Z,99621.67
2018-08-23T10:35:46.299Z,99624.91
2018-08-23T10:38:15.481Z,99619.19
2018-08-23T10:40:44.241Z,99614.83
2018-08-23T10:43:12.097Z,99610.92
2018-08-23T10:45:40.199Z,99607.32
2018-08-23T10:48:13.497Z,99600.33
2018-08-23T10:50:41.283Z,99601.00
2018-08-23T10:53:09.134Z,99610.85
2018-08-23T10:55:36.825Z,99603.42
2018-08-23T10:58:05.492Z,99601.47
2018-08-23T11:00:33.393Z,99598.31
2018-08-23T11:03:04.047Z,99593.77
2018-08-23T11:05:31.923Z,99584.23
2018-08-23T11:08:05.200Z,99565.97
2018-08-23T11:10:38.389Z,99580.34
2018-08-23T11:13:11.986Z,99569.85
2018-08-23T11:15:39.889Z,99564.02
2018-08-23T11:18:12.884Z,99565.23
2018-08-23T11:20:46.890Z,99561.48
2018-08-23T11:23:17.967Z,99553.89
2018-08-23T11:25:45.870Z,99557.42
2018-08-23T11:28:19.332Z,99546.80
2018-08-23T11:30:47.157Z,99537.51
2018-08-23T11:33:15.035Z,99539.20
2018-08-23T11:35:42.800Z,99539.37
2018-08-23T11:38:10.699Z,99536.95
2018-08-23T11:40:38.551Z,99535.93
2018-08-23T11:43:06.350Z,99533.44
2018-08-23T11:45:35.074Z,99540.50
2018-08-23T11:48:02.846Z,99537.97
2018-08-23T11:50:30.650Z,99535.81
2018-08-23T11:52:58.540Z,99529.02
2018-08-23T11:55:26.517Z,99523.13
2018-08-23T11:57:54.437Z,99518.98
2018-08-23T12:00:22.297Z,99516.98
2018-08-23T12:02:50.053Z,99514.05
2018-08-23T12:05:18.777Z,99507.59
2018-08-23T12:07:48.080Z,99500.45
2018-08-23T12:10:18.084Z,99499.45
2018-08-23T12:12:46.549Z,99490.15
2018-08-23T12:15:16.565Z,99484.14
2018-08-23T12:17:44.444Z,99480.14
2018-08-23T12:20:12.251Z,99480.89
2018-08-23T12:22:41.521Z,99481.10
2018-08-23T12:25:10.641Z,99481.56
2018-08-23T12:27:39.191Z,99471.50
2018-08-23T12:30:07.401Z,99470.80
2018-08-23T12:32:35.252Z,99469.52
2018-08-23T12:35:03.368Z,99462.36
2018-08-23T12:37:36.473Z,99459.94
2018-08-23T12:40:09.975Z,99451.92
2018-08-23T12:42:45.392Z,99452.98
2018-08-23T12:45:13.866Z,99443.23
2018-08-23T12:47:41.938Z,99436.34
2018-08-23T12:50:09.839Z,99439.23
2018-08-23T12:52:37.628Z,99436.23
2018-08-23T12:55:05.546Z,99436.06
2018-08-23T12:57:33.377Z,99437.23
2018-08-23T13:00:01.173Z,99422.72
2018-08-23T13:02:29.028Z,99431.91
2018-08-23T13:04:56.838Z,99432.41
2018-08-23T13:07:24.735Z,99431.88
2018-08-23T13:09:52.674Z,99426.35
2018-08-23T13:12:20.531Z,99420.41
2018-08-23T13:14:48.914Z,99418.40
2018-08-23T13:17:16.761Z,99413.64
2018-08-23T13:19:44.534Z,99407.59
2018-08-23T13:22:12.339Z,99413.59
2018-08-23T13:24:45.636Z,99402.55
2018-08-23T13:27:13.461Z,99409.02
2018-08-23T13:29:41.360Z,99407.91
2018-08-23T13:32:09.138Z,99396.27
2018-08-23T13:34:36.986Z,99401.09
2018-08-23T13:37:04.779Z,99388.30
2018-08-23T13:39:32.628Z,99389.67
2018-08-23T13:42:00.620Z,99380.28
2018-08-23T13:44:28.215Z,99382.30
2018-08-23T13:46:55.920Z,99375.15
2018-08-23T13:49:23.682Z,99381.51
2018-08-23T13:51:51.574Z,99374.79
2018-08-23T13:54:19.458Z,99382.66
2018-08-23T13:56:47.348Z,99368.63
2018-08-23T13:59:15.249Z,99372.78
2018-08-23T14:01:43.057Z,99374.72
2018-08-23T14:04:10.869Z,99376.80
2018-08-23T14:06:38.634Z,99376.63
2018-08-23T14:09:06.614Z,99372.23
2018-08-23T14:11:34.324Z,99368.81
2018-08-23T14:14:02.178Z,99369.04
2018-08-23T14:16:29.943Z,99365.58
2018-08-23T14:18:57.822Z,99369.32
2018-08-23T14:21:25.693Z,99366.29
2018-08-23T14:23:53.446Z,99373.41
2018-08-23T14:26:21.289Z,99370.55
2018-08-23T14:28:49.085Z,99364.79
2018-08-23T14:31:16.908Z,99369.22
2018-08-23T14:33:44.744Z,99369.91
2018-08-23T14:36:12.583Z,99371.58
2018-08-23T14:38:40.432Z,99376.17
2018-08-23T14:41:08.273Z,99374.61
2018-08-23T14:43:36.057Z,99376.39
2018-08-23T14:46:09.384Z,99384.19
2018-08-23T14:48:38.995Z,99382.52
2018-08-23T14:51:06.787Z,99375.45
2018-08-23T14:53:34.693Z,99378.17
2018-08-23T14:56:07.863Z,99380.51
2018-08-23T14:58:35.675Z,99375.74
2018-08-23T15:01:03.460Z,99378.38
2018-08-23T15:03:31.277Z,99378.44
2018-08-23T15:05:59.094Z,99364.14
2018-08-23T15:08:26.914Z,99366.52
2018-08-23T15:10:54.782Z,99365.64
2018-08-23T15:13:22.610Z,99363.67
2018-08-23T15:15:51.495Z,99366.58
2018-08-23T15:18:21.357Z,99362.02
2018-08-23T15:20:49.757Z,99362.94
2018-08-23T15:23:17.580Z,99357.47
2018-08-23T15:25:45.273Z,99355.03
2018-08-23T15:28:13.005Z,99360.97
2018-08-23T15:30:40.710Z,99353.80
2018-08-23T15:33:08.498Z,99353.53
2018-08-23T15:35:36.122Z,99356.11
2018-08-23T15:38:03.846Z,99357.73
2018-08-23T15:40:31.595Z,99361.25
2018-08-23T15:42:59.286Z,99369.13
2018-08-23T15:45:26.980Z,99356.77
2018-08-23T15:47:54.694Z,99363.23
2018-08-23T15:50:23.394Z,99359.34
2018-08-23T15:52:51.729Z,99361.16
2018-08-23T15:55:20.390Z,99363.90
2018-08-23T15:57:47.911Z,99357.47
2018-08-23T16:00:16.590Z,99362.42
2018-08-23T16:02:44.537Z,99361.74
2018-08-23T16:05:12.254Z,99361.17
2018-08-23T16:07:39.938Z,99356.85
2018-08-23T16:10:08.451Z,99358.66
2018-08-23T16:12:36.126Z,99358.09
2018-08-23T16:15:09.526Z,99356.30
2018-08-23T16:17:42.677Z,99359.19
2018-08-23T16:20:15.895Z,99360.37
2018-08-23T16:22:43.881Z,99351.97
2018-08-23T16:25:11.591Z,99351.06
2018-08-23T16:27:39.261Z,99358.89
2018-08-23T16:30:07.017Z,99357.94
2018-08-23T16:32:35.454Z,99356.94
2018-08-23T16:35:03.256Z,99361.59
2018-08-23T16:37:31.920Z,99366.14
2018-08-23T16:39:59.608Z,99362.19
2018-08-23T16:42:27.308Z,99354.58
2018-08-23T16:44:54.994Z,99358.27
2018-08-23T16:47:22.846Z,99362.59
2018-08-23T16:49:50.610Z,99361.14
2018-08-23T16:52:18.458Z,99363.78
2018-08-23T16:54:46.134Z,99368.59
2018-08-23T16:57:14.063Z,99366.81
2018-08-23T16:59:41.722Z,99368.77
2018-08-23T17:02:09.835Z,99372.95
2018-08-23T17:04:43.638Z,99374.46
2018-08-23T17:07:12.379Z,99372.07
2018-08-23T17:09:40.107Z,99378.78
2018-08-23T17:12:07.854Z,99383.15
2018-08-23T17:14:35.546Z,99378.36
2018-08-23T17:17:08.794Z,99388.42
2018-08-23T17:19:36.530Z,99394.27
2018-08-23T17:22:04.299Z,99398.81
2018-08-23T17:24:32.053Z,99399.81
2018-08-23T17:26:59.714Z,99403.16
2018-08-23T17:29:27.383Z,99410.41
2018-08-23T17:31:55.089Z,99409.74
2018-08-23T17:34:22.780Z,99417.97
2018-08-23T17:36:50.439Z,99417.70
2018-08-23T17:39:18.120Z,99418.45
2018-08-23T17:41:45.783Z,99419.72
2018-08-23T17:44:13.486Z,99425.41
2018-08-23T17:46:41.218Z,99432.20
2018-08-23T17:49:08.934Z,99438.68
2018-08-23T17:51:36.606Z,99440.57
2018-08-23T17:54:04.381Z,99438.23
2018-08-23T17:56:32.145Z,99445.48
2018-08-23T17:58:59.837Z,99442.91
2018-08-23T18:01:27.580Z,99444.61
2018-08-23T18:03:55.274Z,99450.34
2018-08-23T18:06:22.980Z,99451.48
2018-08-23T18:08:50.667Z,99452.41
2018-08-23T18:11:18.366Z,99451.99
2018-08-23T18:13:46.050Z,99452.72
2018-08-23T18:16:19.346Z,99454.62
2018-08-23T18:18:47.310Z,99466.42
2018-08-23T18:21:15.013Z,99467.47
2018-08-23T18:23:42.701Z,99461.69
2018-08-23T18:26:10.647Z,99469.20
2018-08-23T18:28:38.389Z,99466.48
2018-08-23T18:31:06.428Z,99470.45
2018-08-23T18:33:34.165Z,99473.45
2018-08-23T18:36:01.869Z,99470.20
2018-08-23T18:38:29.542Z,99476.84
2018-08-23T18:40:57.274Z,99476.59
2018-08-23T18:43:25.029Z,99474.59
2018-08-23T18:45:52.804Z,99482.97
2018-08-23T18:48:20.552Z,99476.71
2018-08-23T18:50:48.262Z,99482.63
2018-08-23T18:53:15.993Z,99483.98
2018-08-23T18:55:43.714Z,99485.47
2018-08-23T18:58:11.433Z,99491.69
2018-08-23T19:00:39.182Z,99491.19
2018-08-23T19:03:06.906Z,99486.19
2018-08-23T19:05:34.715Z,99479.31
2018-08-23T19:08:02.422Z,99484.84
2018-08-23T19:10:30.121Z,99482.87
2018-08-23T19:12:57.820Z,99485.80
2018-08-23T19:15:30.998Z,99487.84
2018-08-23T19:17:58.681Z,99491.53
2018-08-23T19:20:26.409Z,99492.30
2018-08-23T19:22:54.197Z,99495.38
2018-08-23T19:25:21.858Z,99498.81
2018-08-23T19:27:49.561Z,99494.85
2018-08-23T19:30:17.250Z,99500.03
2018-08-23T19:32:44.991Z,99496.27
2018-08-23T19:35:12.722Z,99505.88
2018-08-23T19:37:40.424Z,99504.00
2018-08-23T19:40:08.192Z,99508.34
2018-08-23T19:42:35.977Z,99507.84
2018-08-23T19:45:03.706Z,99504.25
2018-08-23T19:47:36.880Z,99496.38
2018-08-23T19:50:08.651Z,99499.75
2018-08-23T19:52:36.466Z,99498.17
2018-08-23T19:55:04.281Z,99502.34
2018-08-23T19:57:32.060Z,99501.44
2018-08-23T19:59:59.761Z,99494.50
2018-08-23T20:02:27.455Z,99491.13
2018-08-23T20:04:55.149Z,99495.88
2018-08-23T20:07:22.835Z,99496.60
2018-08-23T20:09:50.601Z,99486.05
2018-08-23T20:12:18.367Z,99489.53
2018-08-23T20:14:46.109Z,99493.03
2018-08-23T20:17:13.861Z,99498.34
2018-08-23T20:19:41.537Z,99493.72
2018-08-23T20:22:09.250Z,99493.35
2018-08-23T20:24:37.059Z,99493.68
2018-08-23T20:27:04.883Z,99493.05
2018-08-23T20:29:32.977Z,99498.30
2018-08-23T20:32:00.753Z,99496.26
2018-08-23T20:34:28.470Z,99493.21
2018-08-23T20:36:56.172Z,99499.84
2018-08-23T20:39:24.025Z,99494.38
2018-08-23T20:41:51.633Z,99499.72
2018-08-23T20:44:19.313Z,99501.35
2018-08-23T20:46:47.044Z,99503.27
2018-08-23T20:49:14.690Z,99504.09
2018-08-23T20:51:42.381Z,99506.07
2018-08-23T20:54:10.102Z,99504.42
2018-08-23T20:56:37.826Z,99511.66
2018-08-23T20:59:05.873Z,99512.78
2018-08-23T21:01:33.564Z,99511.13
2018-08-23T21:04:01.346Z,99515.23
2018-08-23T21:06:29.098Z,99512.19
2018-08-23T21:08:56.874Z,99514.69
2018-08-23T21:11:24.574Z,99514.19
2018-08-23T21:13:52.285Z,99517.57
2018-08-23T21:16:20.161Z,99522.34
2018-08-23T21:18:47.920Z,99521.07
2018-08-23T21:21:15.609Z,99526.87
2018-08-23T21:23:43.296Z,99522.84
2018-08-23T21:26:10.988Z,99527.59
2018-08-23T21:28:38.737Z,99518.30
2018-08-23T21:31:06.471Z,99528.56
2018-08-23T21:33:34.140Z,99517.55
2018-08-23T21:36:01.798Z,99519.97
2018-08-23T21:38:29.510Z,99522.72
2018-08-23T21:40:57.220Z,99523.30
2018-08-23T21:43:24.910Z,99528.22
2018-08-23T21:45:52.613Z,99526.30
2018-08-23T21:48:20.336Z,99522.72
2018-08-23T21:50:48.066Z,99525.47
2018-08-23T21:53:15.804Z,99510.72
2018-08-23T21:55:43.510Z,99516.81
2018-08-23T21:58:11.528Z,99516.56
2018-08-23T22:00:44.916Z,99515.44
2018-08-23T22:03:13.375Z,99519.56
2018-08-23T22:05:41.699Z,99510.52
2018-08-23T22:08:09.628Z,99511.05
2018-08-23T22:10:37.331Z,99509.94
2018-08-23T22:13:05.202Z,99515.19
2018-08-23T22:15:32.983Z,99511.89
2018-08-23T22:18:00.755Z,99513.55
2018-08-23T22:20:28.445Z,99510.77
2018-08-23T22:22:56.104Z,99512.19
2018-08-23T22:25:23.883Z,99510.53
2018-08-23T22:27:51.552Z,99506.96
2018-08-23T22:30:19.297Z,99505.87
2018-08-23T22:32:46.961Z,99504.20
2018-08-23T22:35:14.621Z,99494.88
2018-08-23T22:37:42.289Z,99494.59
2018-08-23T22:40:09.989Z,99496.23
2018-08-23T22:42:37.670Z,99495.96
2018-08-23T22:45:05.467Z,99492.67
2018-08-23T22:47:33.323Z,99494.06
2018-08-23T22:50:01.044Z,99492.39
2018-08-23T22:52:28.680Z,99493.45
2018-08-23T22:54:56.333Z,99488.24
2018-08-23T22:57:24.029Z,99486.33
2018-08-23T22:59:51.685Z,99483.58
2018-08-23T23:02:24.759Z,99481.08
2018-08-23T23:04:52.430Z,99482.17
2018-08-23T23:07:20.088Z,99482.19
2018-08-23T23:09:47.745Z,99478.84
2018-08-23T23:12:15.414Z,99480.17
2018-08-23T23:14:43.062Z,99480.73
2018-08-23T23:17:10.972Z,99485.67
2018-08-23T23:19:38.732Z,99485.14
2018-08-23T23:22:06.750Z,99479.38
2018-08-23T23:24:39.881Z,99485.09
2018-08-23T23:27:07.664Z,99483.14
2018-08-23T23:29:35.409Z,99478.80
2018-08-23T23:32:03.082Z,99479.35
2018-08-23T23:34:30.721Z,99480.75
2018-08-23T23:36:58.395Z,99484.30
2018-08-23T23:39:26.049Z,99478.56
2018-08-23T23:41:53.766Z,99476.61
2018-08-23T23:44:21.432Z,99474.99
2018-08-23T23:46:49.160Z,99467.56
2018-08-23T23:49:16.826Z,99461.23
2018-08-23T23:51:44.501Z,99462.79
2018-08-23T23:54:12.218Z,99463.86
2018-08-23T23:56:39.869Z,99463.29
2018-08-23T23:59:07.525Z,99462.19
